ADDS METAR Data INFO
IDs: Format: Raw Decoded Include TAF

Data at: 0218 UTC 18 Jan 2018

PANW 180156Z AUTO 36011G17KT 1 1/2SM -SN BR BKN004 OVC016 M03/M04 A2937 RMK AO2 VIS 1V2 1/2 SLP963 P0000 T10331039 FZRANO
PANW 180111Z AUTO 36011G18KT 1 1/4SM -SN BR BKN004 OVC014 M03/M04 A2936 RMK AO2 P0000 FZRANO
PANW 180056Z AUTO 36011KT 1 1/4SM -SN BR SCT006 OVC014 M03/M04 A2936 RMK AO2 SLP959 P0000 T10331039 FZRANO
PANW 180052Z AUTO 36012G18KT 1 1/2SM -SN BR BKN006 OVC016 M03/M04 A2936 RMK AO2 CIG 004V007 P0000 FZRANO
PANW 172356Z AUTO 36012KT 1 1/2SM -SN BR FEW006 OVC016 M03/M04 A2935 RMK AO2 SLP956 P0000 60000 T10331044 11028 21033 51002 FZRANO
PANW 172351Z AUTO 36013G19KT 1 1/4SM -SN BR FEW006 OVC016 M03/M04 A2935 RMK AO2 P0000 FZRANO
PANW 172343Z AUTO 36014G19KT 1SM -SN BR FEW006 OVC016 M03/M04 A2935 RMK AO2 P0000 FZRANO
PANW 172335Z AUTO 36012G17KT 1SM -SN BR OVC018 M03/M04 A2935 RMK AO2 P0000 FZRANO
PANW 172323Z AUTO 01011G18KT 1 1/4SM -SN BR FEW007 OVC020 M03/M04 A2935 RMK AO2 P0000 FZRANO
PANW 172306Z AUTO 36015G22KT 2 1/2SM -SN BR SCT007 BKN023 OVC037 M03/M04 A2935 RMK AO2 P0000 FZRANO
PANW 172256Z AUTO 36010G19KT 9SM -SN SCT007 OVC035 M03/M04 A2935 RMK AO2 SLP956 P0000 T10331044 FZRANO
PANW 172238Z AUTO 01013G18KT 6SM -SN BR SCT007 OVC032 M03/M04 A2935 RMK AO2 P0000 FZRANO
PANW 172217Z AUTO 36013G19KT 9SM -SN BKN007 OVC028 M03/M04 A2935 RMK AO2 P0000 FZRANO
PANW 172156Z AUTO 01009G20KT 9SM -SN FEW007 OVC030 M03/M04 A2934 RMK AO2 SLP954 P0000 T10331044 FZRANO
PANW 172104Z AUTO 36015G19KT 3SM -SN BR SCT021 OVC033 M03/M04 A2933 RMK AO2 P0000 FZRANO
PANW 172056Z AUTO 36012G20KT 3SM -SN BR SCT021 BKN027 OVC035 M03/M04 A2933 RMK AO2 SLP950 P0000 60000 T10331044 51018 FZRANO
PANW 172047Z AUTO 36014G20KT 1 1/2SM -SN BR BKN021 OVC027 M03/M04 A2933 RMK AO2 P0000 FZRANO
PANW 172027Z AUTO 36014G19KT 2 1/2SM -SN BR BKN028 OVC035 M03/M04 A2933 RMK AO2 VIS 1 3/4V5 P0000 FZRANO
PANW 171956Z AUTO 01011G20KT 4SM -SN BR SCT028 OVC037 M03/M04 A2932 RMK AO2 SLP946 P0000 T10331044 FZRANO
PANW 171940Z AUTO 36012G19KT 6SM -SN BR SCT028 OVC037 M03/M04 A2931 RMK AO2 P0000 FZRANO
PANW 171856Z AUTO 36014G20KT 4SM -SN BR BKN021 OVC027 M03/M04 A2930 RMK AO2 SLP939 P0000 T10331044 FZRANO
PANW 171756Z AUTO 36013G20KT 9SM -SN OVC021 M03/M05 A2928 RMK AO2 SLP931 P0000 60000 T10281050 11028 21033 53012 FZRANO
PANW 171712Z AUTO 36012KT 9SM -SN BKN023 BKN031 OVC038 M03/M05 A2926 RMK AO2 P0000 FZRANO
PANW 171656Z AUTO 35012G18KT 9SM -SN FEW023 BKN034 OVC044 M03/M05 A2926 RMK AO2 SLP925 P0000 T10281050 FZRANO
PANW 171456Z AUTO 35009G17KT 9SM -SN SCT028 SCT037 OVC048 M03/M04 A2924 RMK AO2 SLP920 P0000 60000 T10331044 53005 FZRANO
PANW 171430Z AUTO 36008G15KT 10SM FEW007 SCT026 OVC033 M03/M04 A2925 RMK AO2 SNE22 P0000 FZRANO
PANW 171418Z AUTO 01011G16KT 9SM -SN FEW007 BKN025 OVC033 M03/M04 A2925 RMK AO2 P0000 FZRANO
PANW 171410Z AUTO 02010G15KT 9SM -SN FEW007 SCT025 OVC033 M03/M04 A2924 RMK AO2 P0000 FZRANO
PANW 171356Z AUTO 35012KT 9SM -SN BKN030 BKN036 OVC050 M03/M04 A2923 RMK AO2 SLP915 P0000 T10281039 FZRANO
PANW 171256Z AUTO 36013KT 6SM -SN BR SCT032 BKN044 OVC060 M03/M04 A2923 RMK AO2 SNB40 SLP914 P0000 T10281044 FZRANO
PANW 171156Z AUTO 01011G19KT 10SM OVC060 M03/M04 A2923 RMK AO2 SLP914 60000 T10281044 11017 21028 53013 FZRANO
PANW 171056Z AUTO 35013G22KT 10SM SCT070 M03/M04 A2921 RMK AO2 SLP907 T10281039 FZRANO
PANW 170956Z AUTO 35013KT 10SM FEW005 OVC075 M02/M03 A2920 RMK AO2 SLP903 T10221033 FZRANO
PANW 170927Z AUTO 35010G19KT 10SM FEW005 OVC080 M02/M03 A2919 RMK AO2 FZRANO
PANW 170856Z AUTO 35013G19KT 10SM FEW044 OVC070 M02/M03 A2919 RMK AO2 SNE34 SLP901 P0000 60000 T10221033 400001033 58002 FZRANO
PANW 170818Z AUTO 35011G19KT 9SM -SN FEW006 BKN041 OVC049 M02/M03 A2920 RMK AO2 P0000 FZRANO
PANW 170756Z AUTO 35012KT 9SM -SN SCT006 BKN023 OVC050 M02/M03 A2920 RMK AO2 SLP904 P0000 T10221028 FZRANO
PANW 170656Z AUTO 35011G18KT 9SM -SN SCT008 BKN019 OVC042 M02/M03 A2920 RMK AO2 SLP905 P0000 T10221028 FZRANO
PANW 170647Z AUTO 35012KT 9SM -SN FEW008 SCT021 OVC042 M02/M03 A2920 RMK AO2 P0000 FZRANO
PANW 170556Z AUTO 35014G18KT 8SM -SN BKN046 OVC060 M02/M03 A2920 RMK AO2 SLP903 P0000 60000 T10221033 11011 21022 50003 FZRANO
PANW 170456Z AUTO 35012G19KT 9SM -SN BKN033 OVC048 M02/M03 A2920 RMK AO2 SNB49 SLP904 P0000 T10221033 FZRANO
PANW 170356Z AUTO 35014G19KT 10SM BKN060 OVC075 M02/M03 A2919 RMK AO2 SNB30E47 SLP900 P0000 T10171033 FZRANO
PANW 170256Z AUTO 35013KT 10SM FEW050 OVC065 M02/M03 A2919 RMK AO2 SNB05E33 SLP900 P0000 60000 T10171033 56006 FZRANO
PANW 170156Z AUTO 36011KT 10SM FEW050 SCT070 BKN100 M02/M03 A2920 RMK AO2 SLP904 T10171028 FZRANO
PANW 170129Z AUTO 36014G21KT 10SM SCT006 OVC090 M02/M03 A2919 RMK AO2 FZRANO
PANW 170056Z AUTO 36012KT 10SM OVC006 M02/M03 A2919 RMK AO2 SNE04 SLP902 P0000 T10171028 FZRANO
PANW 170003Z AUTO 36012G21KT 9SM -SN BKN006 BKN023 OVC060 M01/M03 A2920 RMK AO2 CIG 005V014 P0000 FZRANO
PANW 162356Z AUTO 36012G18KT 9SM -SN SCT006 BKN023 OVC055 M01/M03 A2920 RMK AO2 SLP906 P0000 60000 T10111028 10000 21017 56008 FZRANO
PANW 162353Z AUTO 36014G18KT 9SM -SN SCT006 BKN042 OVC055 M01/M03 A2920 RMK AO2 P0000 FZRANO
PANW 162256Z AUTO 02009KT 9SM -SN FEW029 OVC045 M01/M03 A2922 RMK AO2 UPB50E52SNB52 SLP910 P0000 T10061033 FZRANO
PANW 162156Z AUTO 01008KT 10SM OVC100 M01/M03 A2923 RMK AO2 SLP914 T10061033 FZRANO
PANW 162056Z AUTO 36012G18KT 10SM BKN110 M01/M03 A2923 RMK AO2 SLP915 T10111028 58008 FZRANO
PANW 161956Z AUTO 36006KT 10SM OVC110 M02/M03 A2925 RMK AO2 SLP919 T10171033 FZRANO
PANW 161856Z AUTO 34011KT 10SM BKN110 M01/M03 A2925 RMK AO2 SLP921 T10111028 FZRANO
PANW 161756Z AUTO 34013KT 10SM SCT120 M01/M03 A2926 RMK AO2 SLP923 T10111033 11011 21033 56028 FZRANO
PANW 161656Z AUTO 35015G21KT 10SM CLR M02/M03 A2928 RMK AO2 SLP931 T10171033 FZRANO
PANW 161556Z AUTO 35011KT 10SM CLR M02/M03 A2931 RMK AO2 SLP940 T10221033 FZRANO
PANW 161456Z AUTO 35012G17KT 10SM CLR M02/M03 A2934 RMK AO2 SLP952 T10221028 58024 FZRANO